Time;durP1;ratioP1;P1;durP2;ratioP2;P2;SDS_P1;SDS_P2;PMS_P1;PMS_P2;Temp;Humidity;BMP_temperature;BMP_pressure;BME280_temperature;BME280_humidity;BME280_pressure;Samples;Min_cycle;Max_cycle;Signal;HPM_P1;HPM_P2
2022/08/22 00:01:47;;;;;;;9.93;3.90;;;18.20;1.00;;;;;;5035623;28;20547;-50
2022/08/22 00:04:31;;;;;;;7.10;3.80;;;18.10;1.00;;;;;;5033650;28;20421;-51
2022/08/22 00:07:09;;;;;;;10.00;3.70;;;18.00;1.00;;;;;;5033504;28;20922;-50
2022/08/22 00:09:42;;;;;;;11.27;4.23;;;17.90;1.00;;;;;;5036765;28;20907;-50
2022/08/22 00:12:24;;;;;;;11.43;3.93;;;17.90;1.00;;;;;;5033238;28;20457;-50
2022/08/22 00:15:15;;;;;;;6.13;4.17;;;18.00;1.00;;;;;;5047451;28;20448;-50
2022/08/22 00:18:09;;;;;;;11.30;3.87;;;18.00;1.00;;;;;;5043981;28;20461;-51
2022/08/22 00:20:44;;;;;;;10.40;3.97;;;18.00;1.00;;;;;;5033582;28;20950;-50
2022/08/22 00:23:27;;;;;;;11.00;4.83;;;17.90;1.00;;;;;;5047789;28;20479;-50
2022/08/22 00:26:02;;;;;;;4.50;3.13;;;17.80;1.00;;;;;;5032495;28;20501;-51
2022/08/22 00:28:31;;;;;;;10.50;4.10;;;17.80;1.00;;;;;;5040487;28;20445;-50
2022/08/22 00:31:23;;;;;;;12.80;4.47;;;17.80;1.00;;;;;;5043460;28;20531;-50
2022/08/22 00:34:21;;;;;;;8.70;4.13;;;17.80;1.00;;;;;;5048218;28;21172;-50
2022/08/22 00:36:53;;;;;;;9.63;3.20;;;17.70;1.00;;;;;;5028137;28;20452;-50
2022/08/22 00:39:27;;;;;;;9.63;3.30;;;17.70;1.00;;;;;;5040681;28;20453;-50
2022/08/22 00:42:11;;;;;;;10.67;3.80;;;17.70;1.00;;;;;;5050480;28;20790;-51
2022/08/22 00:45:14;;;;;;;7.80;3.90;;;17.70;1.00;;;;;;5031453;28;20525;-50
2022/08/22 00:47:42;;;;;;;12.57;4.20;;;17.70;1.00;;;;;;5026501;28;20670;-50
2022/08/22 00:51:04;;;;;;;7.60;3.43;;;17.70;1.00;;;;;;5038255;28;20490;-51
2022/08/22 00:53:57;;;;;;;11.10;3.80;;;17.70;1.00;;;;;;4993820;28;20436;-51
2022/08/22 00:56:52;;;;;;;7.77;3.77;;;17.70;1.00;;;;;;5046375;28;20452;-50
2022/08/22 00:59:30;;;;;;;10.97;4.33;;;17.80;1.00;;;;;;5027028;28;20927;-50
2022/08/22 01:02:25;;;;;;;9.10;3.97;;;17.80;1.00;;;;;;5028215;28;20493;-51
2022/08/22 01:05:12;;;;;;;14.20;4.53;;;17.70;1.00;;;;;;5032331;28;20511;-50
2022/08/22 01:07:57;;;;;;;14.43;3.77;;;17.70;1.00;;;;;;5029330;28;20503;-51
2022/08/22 01:10:51;;;;;;;9.73;3.83;;;17.70;1.00;;;;;;5026790;28;20551;-51
2022/08/22 01:13:41;;;;;;;10.93;4.03;;;17.70;1.00;;;;;;5043937;28;20794;-51
2022/08/22 01:16:33;;;;;;;11.13;4.50;;;17.60;1.00;;;;;;5030132;28;20990;-51
2022/08/22 01:19:17;;;;;;;7.60;3.30;;;17.60;1.00;;;;;;5032553;28;20503;-50
2022/08/22 01:22:01;;;;;;;9.70;3.90;;;17.60;1.00;;;;;;5033464;28;20468;-50
2022/08/22 01:27:56;;;;;;;9.20;3.57;;;17.70;1.00;;;;;;5050440;28;20979;-51
2022/08/22 01:30:46;;;;;;;11.47;3.97;;;17.60;1.00;;;;;;5046996;28;20493;-51
2022/08/22 01:33:36;;;;;;;9.73;4.10;;;17.50;1.00;;;;;;5031090;28;20445;-51
2022/08/22 01:36:23;;;;;;;9.23;3.53;;;17.40;1.00;;;;;;5029209;28;20861;-51
2022/08/22 01:38:49;;;;;;;6.43;3.43;;;17.40;1.00;;;;;;5028985;28;20855;-51
2022/08/22 01:41:42;;;;;;;7.13;3.80;;;17.30;1.00;;;;;;5031766;28;20437;-50
2022/08/22 01:44:36;;;;;;;9.00;3.90;;;17.30;1.20;;;;;;5046272;28;20217;-51
2022/08/22 01:47:14;;;;;;;11.17;4.60;;;17.30;99.40;;;;;;5031314;28;20508;-50
2022/08/22 01:49:56;;;;;;;5.73;3.10;;;17.40;99.90;;;;;;5043912;28;20455;-51
2022/08/22 01:52:47;;;;;;;7.67;3.83;;;17.60;95.50;;;;;;5049526;28;20437;-50
2022/08/22 01:55:33;;;;;;;6.60;4.00;;;17.70;1.00;;;;;;5044573;28;20922;-51
2022/08/22 01:58:12;;;;;;;11.93;3.87;;;17.70;1.00;;;;;;5026701;28;20599;-51
2022/08/22 02:01:16;;;;;;;7.43;4.37;;;17.70;1.00;;;;;;5044404;28;20498;-50
2022/08/22 02:04:21;;;;;;;9.70;3.83;;;17.60;1.00;;;;;;5048581;28;20452;-51
2022/08/22 02:07:02;;;;;;;10.57;4.13;;;17.50;1.00;;;;;;5036295;28;21104;-51
2022/08/22 02:09:40;;;;;;;11.07;4.10;;;17.40;1.00;;;;;;5040424;28;20861;-51
2022/08/22 02:12:40;;;;;;;14.07;4.90;;;17.40;1.00;;;;;;5043834;28;20467;-51
2022/08/22 02:15:34;;;;;;;8.93;5.27;;;17.40;29.50;;;;;;5049642;28;20455;-51
2022/08/22 02:18:07;;;;;;;10.33;4.00;;;17.30;65.40;;;;;;5049392;28;20517;-51
2022/08/22 02:20:57;;;;;;;12.43;4.63;;;17.30;98.40;;;;;;5046492;28;20528;-51
2022/08/22 02:23:34;;;;;;;18.40;4.77;;;17.30;99.90;;;;;;5045956;28;20484;-51
2022/08/22 02:26:00;;;;;;;7.53;4.00;;;17.30;99.90;;;;;;5038094;28;20468;-51
2022/08/22 02:29:04;;;;;;;9.50;4.73;;;17.30;99.90;;;;;;5043460;28;20439;-51
2022/08/22 02:31:45;;;;;;;10.20;4.17;;;17.20;99.90;;;;;;5034951;28;20273;-51
2022/08/22 02:34:27;;;;;;;11.27;4.33;;;17.20;99.90;;;;;;5047910;28;20567;-52
2022/08/22 02:37:01;;;;;;;7.13;4.37;;;17.20;99.90;;;;;;5030955;28;20441;-51
2022/08/22 02:39:51;;;;;;;8.70;4.07;;;17.20;99.90;;;;;;5029989;28;20437;-51
2022/08/22 02:42:37;;;;;;;10.70;3.90;;;17.20;99.90;;;;;;5046413;28;21194;-51
2022/08/22 02:45:33;;;;;;;4.87;3.50;;;17.20;99.90;;;;;;5040651;28;20444;-53
2022/08/22 02:48:21;;;;;;;11.80;4.27;;;17.20;99.90;;;;;;5036844;28;20573;-53
2022/08/22 02:51:09;;;;;;;10.23;3.97;;;17.20;99.90;;;;;;5048973;28;20445;-52
2022/08/22 02:53:38;;;;;;;6.40;4.13;;;17.20;99.90;;;;;;5036699;28;20432;-53
2022/08/22 02:56:19;;;;;;;12.20;4.17;;;17.20;99.90;;;;;;5048866;28;20890;-53
2022/08/22 02:58:52;;;;;;;8.13;4.13;;;17.20;99.90;;;;;;5034551;28;20444;-53
2022/08/22 03:01:42;;;;;;;7.67;4.87;;;17.20;99.90;;;;;;5032687;28;20445;-53
2022/08/22 03:04:30;;;;;;;10.33;4.33;;;17.30;99.90;;;;;;5031877;28;20439;-53
2022/08/22 03:07:13;;;;;;;10.47;4.77;;;17.20;99.90;;;;;;5033323;28;20468;-53
2022/08/22 03:10:27;;;;;;;10.13;4.73;;;17.20;99.90;;;;;;5038902;28;20440;-53
2022/08/22 03:13:00;;;;;;;11.23;4.93;;;17.20;99.90;;;;;;5022038;28;20450;-53
2022/08/22 03:15:37;;;;;;;8.57;4.17;;;17.20;99.90;;;;;;5024865;28;20485;-53
2022/08/22 03:18:02;;;;;;;11.50;4.20;;;17.20;99.90;;;;;;5028345;28;20948;-52
2022/08/22 03:20:50;;;;;;;13.73;4.50;;;17.20;99.90;;;;;;5050193;28;20432;-53
2022/08/22 03:23:21;;;;;;;15.50;4.80;;;17.20;99.90;;;;;;5033496;28;20314;-53
2022/08/22 03:25:54;;;;;;;9.20;4.17;;;17.10;99.90;;;;;;5047023;28;20437;-53
2022/08/22 03:28:30;;;;;;;7.93;4.20;;;17.10;99.90;;;;;;5032568;28;20523;-53
2022/08/22 03:31:10;;;;;;;8.60;4.10;;;17.20;99.90;;;;;;5042707;28;20495;-53
2022/08/22 03:33:36;;;;;;;14.77;5.33;;;17.20;99.90;;;;;;5033849;28;20526;-53
2022/08/22 03:36:05;;;;;;;13.13;4.93;;;17.20;99.90;;;;;;5047730;28;20448;-53
2022/08/22 03:38:33;;;;;;;11.80;4.43;;;17.20;99.90;;;;;;5051690;28;20856;-53
2022/08/22 03:41:16;;;;;;;15.27;4.90;;;17.20;99.90;;;;;;5051132;28;20436;-53
2022/08/22 03:44:07;;;;;;;12.30;4.90;;;17.20;99.90;;;;;;5052003;28;20813;-53
2022/08/22 03:46:50;;;;;;;10.57;4.60;;;17.20;99.90;;;;;;5051225;28;20480;-53
2022/08/22 03:50:01;;;;;;;7.80;4.30;;;17.10;99.90;;;;;;5045001;28;20469;-53
2022/08/22 03:53:07;;;;;;;10.40;4.90;;;17.10;99.90;;;;;;5049722;28;20451;-53
2022/08/22 03:56:10;;;;;;;13.27;4.20;;;17.10;99.90;;;;;;5040579;28;20439;-53
2022/08/22 03:58:54;;;;;;;10.60;4.70;;;17.10;99.90;;;;;;5045110;28;20563;-53
2022/08/22 04:01:44;;;;;;;7.20;3.93;;;17.10;99.90;;;;;;5038159;28;21026;-53
2022/08/22 04:04:09;;;;;;;11.63;4.70;;;17.10;99.90;;;;;;5051038;28;20525;-53
2022/08/22 04:06:44;;;;;;;8.40;4.33;;;17.10;99.90;;;;;;5039826;28;21031;-53
2022/08/22 04:09:34;;;;;;;15.47;5.03;;;17.10;99.90;;;;;;5036858;28;20186;-53
2022/08/22 04:12:12;;;;;;;12.70;4.70;;;17.10;99.90;;;;;;5040217;28;20843;-53
2022/08/22 04:14:42;;;;;;;11.67;4.70;;;17.10;99.90;;;;;;5032806;28;20442;-53
2022/08/22 04:17:46;;;;;;;10.47;5.33;;;17.10;99.90;;;;;;5031897;28;20449;-53
2022/08/22 04:20:11;;;;;;;7.90;4.70;;;17.10;99.90;;;;;;5044719;28;20594;-52
2022/08/22 04:23:20;;;;;;;7.60;4.53;;;17.10;99.90;;;;;;5033709;28;21078;-53
2022/08/22 04:25:53;;;;;;;19.77;4.70;;;17.00;99.90;;;;;;5040550;28;20568;-53
2022/08/22 04:28:33;;;;;;;8.77;4.97;;;17.00;99.90;;;;;;5052276;28;20417;-52
2022/08/22 04:31:07;;;;;;;16.73;5.13;;;17.00;99.90;;;;;;5048364;28;20437;-52
2022/08/22 04:33:48;;;;;;;10.70;4.90;;;17.00;1.00;;;;;;5051156;28;20470;-52
2022/08/22 04:36:21;;;;;;;10.20;4.83;;;17.00;1.00;;;;;;5051141;28;20456;-52
2022/08/22 04:38:55;;;;;;;8.70;4.93;;;17.00;1.00;;;;;;5037026;28;20934;-52
2022/08/22 04:41:28;;;;;;;11.00;4.50;;;17.00;1.00;;;;;;5035140;28;20445;-52
2022/08/22 04:44:06;;;;;;;9.73;5.10;;;17.00;1.00;;;;;;5044826;28;20450;-52
2022/08/22 04:46:47;;;;;;;15.40;4.93;;;17.00;1.00;;;;;;5048307;28;21012;-52
2022/08/22 04:49:27;;;;;;;15.67;4.83;;;17.00;1.00;;;;;;5049937;28;20440;-52
2022/08/22 04:52:14;;;;;;;16.33;4.97;;;17.00;1.00;;;;;;5049271;28;20449;-52
2022/08/22 04:55:02;;;;;;;12.30;4.97;;;17.00;4.60;;;;;;5048969;28;20552;-53
2022/08/22 04:57:44;;;;;;;10.53;6.07;;;17.00;56.80;;;;;;5048941;28;20448;-52
2022/08/22 05:00:11;;;;;;;13.30;5.37;;;17.00;99.90;;;;;;5046981;28;20471;-52
2022/08/22 05:02:41;;;;;;;8.47;4.53;;;17.00;99.90;;;;;;5034150;28;20503;-52
2022/08/22 05:05:30;;;;;;;13.33;5.67;;;17.00;99.90;;;;;;5045998;28;20486;-53
2022/08/22 05:07:59;;;;;;;12.70;5.20;;;17.00;99.90;;;;;;5038734;28;20945;-51
2022/08/22 05:10:36;;;;;;;11.23;5.27;;;17.00;99.90;;;;;;5046300;28;20445;-52
2022/08/22 05:13:08;;;;;;;17.20;4.90;;;17.00;99.90;;;;;;5046406;28;20844;-52
2022/08/22 05:15:37;;;;;;;15.47;5.87;;;17.00;99.90;;;;;;5050307;28;20432;-52
2022/08/22 05:18:08;;;;;;;11.07;5.00;;;17.10;1.00;;;;;;5050464;28;20412;-52
2022/08/22 05:20:37;;;;;;;9.30;4.73;;;17.10;1.00;;;;;;5041344;28;20453;-52
2022/08/22 05:23:16;;;;;;;9.03;4.70;;;17.10;1.00;;;;;;5047225;28;20511;-52
2022/08/22 05:25:45;;;;;;;10.67;5.40;;;17.10;1.00;;;;;;5032091;28;20449;-51
2022/08/22 05:28:27;;;;;;;12.93;5.20;;;17.20;1.00;;;;;;5046547;28;20440;-52
2022/08/22 05:30:54;;;;;;;23.60;6.70;;;17.20;1.00;;;;;;5039607;28;20453;-52
2022/08/22 05:33:20;;;;;;;14.30;5.43;;;17.20;1.00;;;;;;5040873;28;20467;-52
2022/08/22 05:36:04;;;;;;;14.20;6.07;;;17.30;1.00;;;;;;5049923;28;20436;-51
2022/08/22 05:38:33;;;;;;;9.13;5.40;;;17.30;1.00;;;;;;5039953;28;20190;-51
2022/08/22 05:41:08;;;;;;;12.77;5.93;;;17.30;1.00;;;;;;5050553;28;20440;-52
2022/08/22 05:43:39;;;;;;;12.00;6.20;;;17.30;1.00;;;;;;5032146;28;21076;-52
2022/08/22 05:46:08;;;;;;;11.13;5.60;;;17.30;99.90;;;;;;5043226;28;20469;-52
2022/08/22 05:48:44;;;;;;;14.90;6.20;;;17.30;99.90;;;;;;5050604;28;20463;-52
2022/08/22 05:51:24;;;;;;;16.63;5.87;;;17.40;99.90;;;;;;5049431;28;20539;-52
2022/08/22 05:54:01;;;;;;;14.10;5.93;;;17.40;99.90;;;;;;5040763;28;20527;-52
2022/08/22 05:56:30;;;;;;;11.77;6.00;;;17.50;99.90;;;;;;5043584;28;20447;-52
2022/08/22 05:59:00;;;;;;;12.80;5.60;;;17.50;99.90;;;;;;5045447;28;20906;-52
2022/08/22 06:01:26;;;;;;;10.20;5.67;;;17.60;99.90;;;;;;5047193;28;20464;-52
2022/08/22 06:04:13;;;;;;;10.73;5.43;;;17.70;82.70;;;;;;5050345;28;20468;-53
2022/08/22 06:06:51;;;;;;;9.40;4.97;;;17.70;20.30;;;;;;5046180;28;20577;-51
2022/08/22 06:09:42;;;;;;;17.67;5.40;;;17.90;3.50;;;;;;5033586;28;20444;-52
2022/08/22 06:12:20;;;;;;;11.63;5.30;;;18.00;1.00;;;;;;5040144;28;20440;-52
2022/08/22 06:15:41;;;;;;;13.23;5.27;;;18.00;1.00;;;;;;5042782;28;20440;-53
2022/08/22 06:18:13;;;;;;;12.63;5.80;;;18.10;1.00;;;;;;5029396;28;20448;-52
2022/08/22 06:20:51;;;;;;;12.13;5.50;;;18.20;1.00;;;;;;5047815;28;20519;-52
2022/08/22 06:23:26;;;;;;;16.57;5.80;;;18.30;99.90;;;;;;5046022;28;20472;-53
2022/08/22 06:25:55;;;;;;;14.00;5.27;;;18.30;99.90;;;;;;5048780;28;20440;-53
2022/08/22 06:28:25;;;;;;;11.13;4.87;;;18.30;99.90;;;;;;5048003;28;20487;-52
2022/08/22 06:30:54;;;;;;;11.17;5.07;;;18.40;99.90;;;;;;5050245;28;20444;-53
2022/08/22 06:33:29;;;;;;;12.33;5.10;;;18.60;99.90;;;;;;5047348;28;20539;-54
2022/08/22 06:39:12;;;;;;;12.30;4.97;;;18.90;42.20;;;;;;5039961;28;20525;-53
2022/08/22 06:41:56;;;;;;;13.27;4.70;;;19.10;1.00;;;;;;5043719;28;20438;-53
2022/08/22 06:44:44;;;;;;;11.70;4.80;;;19.30;1.00;;;;;;5033890;28;20518;-53
2022/08/22 06:47:22;;;;;;;8.30;3.80;;;19.70;1.00;;;;;;5035913;28;20472;-54
2022/08/22 06:49:53;;;;;;;7.67;4.60;;;20.00;1.00;;;;;;5042014;28;20444;-54
2022/08/22 06:52:22;;;;;;;8.87;4.37;;;20.40;1.00;;;;;;5039567;28;20433;-53
2022/08/22 06:54:55;;;;;;;6.20;4.13;;;20.80;1.00;;;;;;5047120;28;20456;-54
2022/08/22 06:57:32;;;;;;;9.17;4.10;;;20.90;1.00;;;;;;5038798;28;20927;-53
2022/08/22 07:00:03;;;;;;;14.40;4.50;;;20.70;1.00;;;;;;5040802;28;20444;-53
2022/08/22 07:02:38;;;;;;;8.93;3.97;;;20.50;1.00;;;;;;5038897;28;20524;-53
2022/08/22 07:05:06;;;;;;;12.40;4.37;;;20.30;1.00;;;;;;5040740;28;20447;-54
2022/08/22 07:07:34;;;;;;;9.70;4.57;;;20.20;1.00;;;;;;5038515;28;20473;-53
2022/08/22 07:10:00;;;;;;;11.60;3.97;;;20.40;1.00;;;;;;5046175;28;20432;-54
2022/08/22 07:12:34;;;;;;;7.73;4.37;;;20.80;1.00;;;;;;5051008;28;20515;-54
2022/08/22 07:15:10;;;;;;;5.63;3.10;;;21.10;99.90;;;;;;5035343;28;20441;-54
2022/08/22 07:17:48;;;;;;;14.73;3.60;;;21.10;99.90;;;;;;5039126;28;20519;-54
2022/08/22 07:20:25;;;;;;;8.10;3.33;;;21.00;99.90;;;;;;5033913;28;20930;-54
2022/08/22 07:22:56;;;;;;;11.53;3.73;;;20.90;1.00;;;;;;5048000;28;20495;-55
2022/08/22 07:25:23;;;;;;;12.33;3.40;;;21.00;99.90;;;;;;5044724;28;20448;-54
2022/08/22 07:28:17;;;;;;;8.20;3.60;;;21.10;99.90;;;;;;5048956;28;20987;-54
2022/08/22 07:45:05;;;;;;;10.77;3.53;;;21.80;99.90;;;;;;5025618;28;20496;-54
2022/08/22 07:48:03;;;;;;;8.53;3.30;;;21.90;99.90;;;;;;5021290;28;21385;-55
2022/08/22 07:50:52;;;;;;;8.33;3.53;;;21.90;99.90;;;;;;5005111;28;20446;-55
2022/08/22 07:53:36;;;;;;;7.30;3.07;;;22.10;99.90;;;;;;5031271;28;20442;-54
2022/08/22 07:56:05;;;;;;;10.07;3.60;;;22.40;99.90;;;;;;5013083;28;20855;-57
2022/08/22 07:58:34;;;;;;;9.00;3.30;;;23.00;99.90;;;;;;5011608;28;20441;-60
2022/08/22 08:01:00;;;;;;;15.03;3.67;;;23.60;99.90;;;;;;5016782;28;20444;-59
2022/08/22 08:03:28;;;;;;;12.33;3.33;;;23.90;99.90;;;;;;5025164;28;20430;-59
2022/08/22 08:05:54;;;;;;;10.53;3.20;;;24.30;99.90;;;;;;5012583;28;20932;-60
2022/08/22 08:08:42;;;;;;;9.10;3.60;;;24.80;99.90;;;;;;5030903;28;20476;-59
2022/08/22 08:11:13;;;;;;;12.60;3.60;;;25.10;99.90;;;;;;5012577;28;20435;-55
2022/08/22 08:13:46;;;;;;;7.90;3.20;;;25.30;99.90;;;;;;5016795;28;20487;-57
2022/08/22 08:16:19;;;;;;;7.27;3.50;;;25.40;99.90;;;;;;5044484;28;20432;-57
2022/08/22 08:18:48;;;;;;;9.73;3.13;;;25.80;99.90;;;;;;5052501;28;20449;-58
2022/08/22 08:21:41;;;;;;;9.10;3.13;;;26.10;99.90;;;;;;5034603;28;20501;-57
2022/08/22 08:24:13;;;;;;;9.10;3.00;;;26.60;99.90;;;;;;5031974;28;20528;-56
2022/08/22 08:28:32;;;;;;;9.27;3.27;;;26.90;99.90;;;;;;5032457;28;20470;-58
2022/08/22 08:29:29;;;;;;;6.30;3.23;;;27.10;99.90;;;;;;5032260;28;20402;-57
2022/08/22 08:31:56;;;;;;;7.90;2.77;;;27.30;99.90;;;;;;5026216;28;20481;-58
2022/08/22 08:34:25;;;;;;;9.40;3.20;;;27.60;99.90;;;;;;5012549;28;20430;-58
2022/08/22 08:36:51;;;;;;;8.27;3.30;;;27.90;99.90;;;;;;5012347;28;20407;-58
2022/08/22 08:39:41;;;;;;;8.33;3.40;;;27.90;99.90;;;;;;5029403;28;20491;-56
2022/08/22 08:42:21;;;;;;;9.47;3.70;;;28.20;99.90;;;;;;5029899;28;20198;-58
2022/08/22 08:45:17;;;;;;;13.33;3.27;;;28.40;99.90;;;;;;5029948;28;20448;-59
2022/08/22 08:47:54;;;;;;;9.63;3.53;;;28.40;99.90;;;;;;5031799;28;20450;-58
2022/08/22 08:50:37;;;;;;;9.73;3.53;;;28.30;99.90;;;;;;5031533;28;20425;-57
2022/08/22 08:53:27;;;;;;;9.23;3.00;;;28.50;99.90;;;;;;5032140;28;20722;-59
2022/08/22 08:56:11;;;;;;;10.20;3.63;;;28.60;99.90;;;;;;5031617;28;20422;-59
2022/08/22 08:59:08;;;;;;;10.93;3.10;;;28.50;99.90;;;;;;5031284;28;20417;-59
2022/08/22 09:01:39;;;;;;;8.40;2.90;;;28.70;99.90;;;;;;5032871;28;20442;-59
2022/08/22 09:04:27;;;;;;;6.80;2.90;;;28.80;99.90;;;;;;5024978;28;20421;-59
2022/08/22 09:06:55;;;;;;;10.83;2.97;;;29.10;99.90;;;;;;5011688;28;20473;-59
2022/08/22 09:09:39;;;;;;;6.33;2.70;;;29.10;99.90;;;;;;5025227;28;20437;-56
2022/08/22 09:12:13;;;;;;;7.33;2.90;;;29.00;99.90;;;;;;5030081;28;20770;-60
2022/08/22 09:14:39;;;;;;;5.60;3.07;;;29.30;99.90;;;;;;5030331;28;20791;-60
2022/08/22 09:17:19;;;;;;;8.37;3.20;;;29.40;99.90;;;;;;5031449;28;20424;-62
2022/08/22 09:20:09;;;;;;;9.00;2.80;;;29.40;99.90;;;;;;5031408;28;20163;-57
2022/08/22 09:22:49;;;;;;;7.43;2.87;;;29.20;99.90;;;;;;5047203;28;20878;-60
2022/08/22 09:25:21;;;;;;;10.40;3.27;;;28.90;99.90;;;;;;5031232;28;20418;-59
2022/08/22 09:28:06;;;;;;;8.53;2.90;;;28.50;99.90;;;;;;5030688;28;20485;-60
2022/08/22 09:30:54;;;;;;;10.83;3.37;;;28.10;99.90;;;;;;5025478;28;20444;-60
2022/08/22 09:33:28;;;;;;;11.30;2.93;;;28.40;99.90;;;;;;5020719;28;20867;-60
2022/08/22 09:36:17;;;;;;;8.30;2.40;;;28.70;99.90;;;;;;5031077;28;20398;-60
2022/08/22 09:38:48;;;;;;;6.60;2.80;;;28.80;99.90;;;;;;5030642;28;20418;-59
2022/08/22 09:41:36;;;;;;;6.40;2.80;;;29.10;99.90;;;;;;5034597;28;20436;-57
2022/08/22 09:44:14;;;;;;;6.20;2.87;;;29.10;99.90;;;;;;5030734;28;21166;-59
2022/08/22 09:46:55;;;;;;;13.03;2.63;;;28.80;99.90;;;;;;5030923;28;20465;-59
2022/08/22 09:49:27;;;;;;;7.87;2.93;;;28.80;99.90;;;;;;5030854;28;20410;-56
2022/08/22 09:52:05;;;;;;;5.97;2.53;;;28.40;99.90;;;;;;5030757;28;20449;-59
2022/08/22 09:54:36;;;;;;;4.33;2.43;;;27.80;99.90;;;;;;5030503;28;20985;-59
2022/08/22 09:57:31;;;;;;;3.33;2.10;;;27.30;99.90;;;;;;5040393;28;20431;-60
2022/08/22 10:00:17;;;;;;;8.30;3.20;;;27.00;99.90;;;;;;5033330;28;20521;-59
2022/08/22 10:03:07;;;;;;;6.00;2.63;;;26.60;99.90;;;;;;5030748;28;20401;-59
2022/08/22 10:05:42;;;;;;;14.70;3.50;;;26.50;99.90;;;;;;5039286;28;20457;-60
2022/08/22 10:08:13;;;;;;;6.60;3.13;;;26.60;99.90;;;;;;5037409;28;20461;-59
2022/08/22 10:11:17;;;;;;;10.80;3.37;;;26.40;99.90;;;;;;5030586;28;20410;-58
2022/08/22 10:13:54;;;;;;;9.37;2.60;;;26.20;99.90;;;;;;5017854;28;20421;-60
2022/08/22 10:16:57;;;;;;;5.23;1.97;;;26.00;99.90;;;;;;5030619;28;20452;-55
2022/08/22 10:19:41;;;;;;;7.47;2.90;;;26.10;99.90;;;;;;5028944;28;20467;-60
2022/08/22 10:22:35;;;;;;;7.27;2.87;;;26.40;99.90;;;;;;5030075;28;20461;-58
2022/08/22 10:25:24;;;;;;;9.80;2.83;;;26.90;99.90;;;;;;5034502;28;20421;-60
2022/08/22 10:27:53;;;;;;;4.20;2.40;;;27.90;99.90;;;;;;5032097;28;20524;-60
2022/08/22 10:30:23;;;;;;;6.87;2.80;;;28.50;99.90;;;;;;5031355;28;20432;-59
2022/08/22 10:33:20;;;;;;;7.13;2.80;;;28.40;99.90;;;;;;5026127;28;21131;-56
2022/08/22 10:36:02;;;;;;;7.67;2.37;;;28.10;99.90;;;;;;5032440;28;20455;-59
2022/08/22 10:38:54;;;;;;;10.20;3.27;;;27.70;99.90;;;;;;5019725;28;20799;-60
2022/08/22 10:41:25;;;;;;;6.30;2.70;;;28.40;99.90;;;;;;5030207;28;20443;-60
2022/08/22 10:44:07;;;;;;;6.87;2.50;;;29.70;99.90;;;;;;5026669;28;20503;-59
2022/08/22 10:46:37;;;;;;;7.60;2.60;;;30.60;99.90;;;;;;5033269;28;20465;-60
2022/08/22 10:49:18;;;;;;;4.90;2.40;;;30.30;99.90;;;;;;5038519;28;20425;-57
2022/08/22 10:52:01;;;;;;;7.40;2.60;;;29.40;99.90;;;;;;5033812;28;20429;-60
2022/08/22 10:55:10;;;;;;;7.20;2.80;;;28.60;99.90;;;;;;5014564;28;20403;-60
2022/08/22 10:57:50;;;;;;;7.73;3.10;;;27.90;99.90;;;;;;5030647;28;20436;-59
2022/08/22 11:00:50;;;;;;;6.70;3.00;;;27.50;99.90;;;;;;5034705;28;20961;-58
2022/08/22 11:03:34;;;;;;;8.47;3.00;;;27.10;99.90;;;;;;5036077;28;20433;-58
2022/08/22 11:06:05;;;;;;;11.33;2.63;;;27.70;99.90;;;;;;5034741;28;21011;-60
2022/08/22 11:08:43;;;;;;;9.10;2.80;;;28.70;99.90;;;;;;5040568;28;20429;-60
2022/08/22 11:11:22;;;;;;;8.00;2.47;;;29.80;99.90;;;;;;5033634;28;20440;-56
2022/08/22 11:14:00;;;;;;;5.20;2.30;;;30.20;99.90;;;;;;5035705;28;20480;-56
2022/08/22 11:17:01;;;;;;;4.53;2.10;;;29.90;99.90;;;;;;5060518;28;20433;-59
2022/08/22 11:19:42;;;;;;;5.10;2.10;;;29.50;99.90;;;;;;5032262;28;20433;-59
2022/08/22 11:22:17;;;;;;;7.17;2.63;;;30.50;99.90;;;;;;5036818;28;20985;-56
2022/08/22 11:25:25;;;;;;;4.47;2.33;;;31.80;99.90;;;;;;5043176;28;20420;-57
2022/08/22 11:28:02;;;;;;;12.30;2.70;;;32.80;99.90;;;;;;5020514;28;20481;-61
2022/08/22 11:30:43;;;;;;;6.60;2.40;;;33.10;99.90;;;;;;5015917;28;20446;-61
2022/08/22 11:33:15;;;;;;;5.47;2.60;;;32.70;99.90;;;;;;5029039;28;20413;-56
2022/08/22 11:35:47;;;;;;;9.17;2.60;;;32.50;99.90;;;;;;5030513;28;20461;-61
2022/08/22 11:38:41;;;;;;;14.80;2.57;;;32.00;99.90;;;;;;5018659;28;20446;-61
2022/08/22 11:41:41;;;;;;;9.37;3.40;;;31.80;99.90;;;;;;5014306;28;20560;-61
2022/08/22 11:44:16;;;;;;;7.30;2.70;;;32.00;99.90;;;;;;5013522;28;20447;-61
2022/08/22 11:46:45;;;;;;;4.80;2.73;;;31.70;99.90;;;;;;5028268;28;20863;-61
2022/08/22 11:49:31;;;;;;;8.93;2.57;;;31.30;99.90;;;;;;5018471;28;20445;-60
2022/08/22 11:52:03;;;;;;;4.40;2.37;;;31.30;99.90;;;;;;5013211;28;20446;-61
2022/08/22 11:54:52;;;;;;;3.30;1.87;;;32.00;99.90;;;;;;5029227;28;20430;-61
2022/08/22 11:57:47;;;;;;;5.07;2.40;;;32.80;99.90;;;;;;5030208;28;20437;-61
2022/08/22 12:00:37;;;;;;;4.27;2.43;;;33.60;99.90;;;;;;5030083;28;20488;-61
2022/08/22 12:03:32;;;;;;;3.27;2.30;;;33.90;99.90;;;;;;5030994;28;20445;-62
2022/08/22 12:06:11;;;;;;;5.50;2.33;;;33.40;99.90;;;;;;5020450;28;20465;-61
2022/08/22 12:08:42;;;;;;;6.97;2.47;;;32.90;99.90;;;;;;5016238;28;20865;-62
2022/08/22 12:11:21;;;;;;;5.83;2.20;;;32.30;99.90;;;;;;5034360;28;20446;-62
2022/08/22 12:13:54;;;;;;;10.67;2.27;;;32.00;99.90;;;;;;5019790;28;20435;-61
2022/08/22 12:16:47;;;;;;;6.30;1.97;;;31.60;99.90;;;;;;5018944;28;20446;-61
2022/08/22 12:19:28;;;;;;;11.83;2.40;;;31.10;99.90;;;;;;5017333;28;20955;-61
2022/08/22 12:21:53;;;;;;;6.73;2.87;;;30.30;99.90;;;;;;5031426;28;20481;-60
2022/08/22 12:24:42;;;;;;;8.10;2.40;;;29.90;99.90;;;;;;5032984;28;20441;-60
2022/08/22 12:27:29;;;;;;;8.07;2.23;;;29.70;99.90;;;;;;5017698;28;20219;-61
2022/08/22 12:30:24;;;;;;;6.00;2.57;;;29.60;99.90;;;;;;5016972;28;20484;-60
2022/08/22 12:33:16;;;;;;;13.00;3.30;;;29.30;99.90;;;;;;5017024;28;20944;-61
2022/08/22 12:35:57;;;;;;;13.23;2.93;;;29.10;99.90;;;;;;5021929;28;21219;-60
2022/08/22 12:38:23;;;;;;;9.70;2.30;;;29.10;99.90;;;;;;5023448;28;20492;-59
2022/08/22 12:41:03;;;;;;;6.43;2.20;;;29.30;99.90;;;;;;5018360;28;20445;-60
2022/08/22 12:43:32;;;;;;;3.53;2.33;;;29.50;99.90;;;;;;5016181;28;20186;-60
2022/08/22 12:46:33;;;;;;;6.57;2.23;;;29.80;99.90;;;;;;5016385;28;20450;-60
2022/08/22 12:49:08;;;;;;;5.00;2.10;;;29.70;99.90;;;;;;5017235;28;20813;-60
2022/08/22 12:51:40;;;;;;;5.07;2.60;;;29.30;99.90;;;;;;5018537;28;20458;-55
2022/08/22 12:54:16;;;;;;;5.93;2.40;;;28.70;99.90;;;;;;5029388;28;20524;-60
2022/08/22 12:56:53;;;;;;;5.63;2.23;;;28.30;99.90;;;;;;5031962;28;21150;-59
2022/08/22 12:59:30;;;;;;;3.13;2.00;;;27.90;99.90;;;;;;5031255;28;20440;-56
2022/08/22 13:02:00;;;;;;;8.23;2.30;;;27.70;99.90;;;;;;5030401;28;20440;-59
2022/08/22 13:04:30;;;;;;;4.97;2.50;;;27.80;99.90;;;;;;5030595;28;20946;-60
2022/08/22 13:07:08;;;;;;;8.67;2.67;;;27.80;99.90;;;;;;5030996;28;20449;-59
2022/08/22 13:09:40;;;;;;;6.87;2.87;;;27.90;99.90;;;;;;5027150;28;20897;-59
2022/08/22 13:12:27;;;;;;;8.57;3.00;;;27.90;99.90;;;;;;5030255;28;20433;-59
2022/08/22 13:15:12;;;;;;;3.20;2.33;;;28.00;99.90;;;;;;5031658;28;20824;-59
2022/08/22 13:17:41;;;;;;;8.30;2.70;;;28.10;99.90;;;;;;5030883;28;20504;-60
2022/08/22 13:20:17;;;;;;;5.73;2.63;;;27.90;99.90;;;;;;5030048;28;20442;-60
2022/08/22 13:22:42;;;;;;;6.47;2.80;;;28.00;99.90;;;;;;5031156;28;21054;-60
2022/08/22 13:25:20;;;;;;;5.87;2.07;;;28.00;99.90;;;;;;5031244;28;20398;-60
2022/08/22 13:27:49;;;;;;;8.97;2.53;;;27.90;99.90;;;;;;5031458;28;20892;-59
2022/08/22 13:30:20;;;;;;;6.50;2.80;;;27.70;99.90;;;;;;5027790;28;20438;-60
2022/08/22 13:32:51;;;;;;;4.37;2.20;;;27.50;99.90;;;;;;5030611;28;20418;-59
2022/08/22 13:35:51;;;;;;;7.00;2.90;;;27.30;99.90;;;;;;5031147;28;20433;-56
2022/08/22 13:38:27;;;;;;;4.87;2.30;;;27.20;99.90;;;;;;5030693;28;20434;-60
2022/08/22 13:40:57;;;;;;;6.40;2.30;;;27.00;99.90;;;;;;5028489;28;20532;-59
2022/08/22 13:43:29;;;;;;;20.77;3.23;;;26.80;99.90;;;;;;5029811;28;20418;-59
2022/08/22 13:46:01;;;;;;;7.03;2.40;;;26.60;99.90;;;;;;5030977;28;20501;-60
2022/08/22 13:48:44;;;;;;;9.00;3.27;;;26.50;99.90;;;;;;5030822;28;20919;-59
2022/08/22 13:51:43;;;;;;;11.57;2.27;;;26.40;99.90;;;;;;5029130;28;20503;-59
2022/08/22 13:54:09;;;;;;;8.23;2.77;;;26.20;99.90;;;;;;5029071;28;20454;-59
2022/08/22 13:57:07;;;;;;;10.47;3.10;;;26.10;99.90;;;;;;5030006;28;20421;-59
2022/08/22 14:00:03;;;;;;;10.43;2.23;;;26.00;99.90;;;;;;5030894;28;20175;-59
2022/08/22 14:02:31;;;;;;;5.93;2.70;;;25.90;99.90;;;;;;5028591;28;20446;-59
2022/08/22 14:05:04;;;;;;;5.57;2.70;;;25.80;99.90;;;;;;5030717;28;20884;-59
2022/08/22 14:07:36;;;;;;;6.17;2.90;;;25.80;99.90;;;;;;5030697;28;20464;-59
2022/08/22 14:10:28;;;;;;;4.73;2.70;;;25.70;99.90;;;;;;5030368;28;20418;-60
2022/08/22 14:12:57;;;;;;;5.70;2.30;;;25.70;99.90;;;;;;5043069;28;21202;-59
2022/08/22 14:15:27;;;;;;;7.83;3.10;;;25.70;99.90;;;;;;5019914;28;20437;-59